ADDS METAR Data INFO
IDs: Format: Raw Decoded Include TAF

Data at: 2027 UTC 16 Dec 2017

KOTM 161953Z AUTO 24006KT 10SM CLR 11/M04 A2985 RMK AO2 SLP111 T01111039
KOTM 161853Z AUTO 23008KT 10SM CLR 11/M04 A2984 RMK AO2 SLP108 T01061039
KOTM 161753Z AUTO 25008KT 10SM CLR 10/M04 A2985 RMK AO2 SLP112 T01001039 10100 20028 51012
KOTM 161653Z AUTO 24012KT 10SM CLR 08/M04 A2985 RMK AO2 SLP113 T00831039
KOTM 161553Z AUTO 23010KT 10SM CLR 07/M04 A2984 RMK AO2 SLP110 T00671039
KOTM 161453Z AUTO 23013KT 10SM CLR 04/M04 A2982 RMK AO2 SLP101 T00441039 51018
KOTM 161353Z AUTO 22009KT 10SM CLR 03/M04 A2980 RMK AO2 SLP096 T00281044
KOTM 161253Z AUTO 22011KT 10SM CLR 03/M04 A2979 RMK AO2 SLP092 T00331044
KOTM 161153Z AUTO 22014KT 10SM CLR 04/M04 A2976 RMK AO2 SLP084 T00391044 10050 20022 56007
KOTM 161053Z AUTO 22014KT 10SM CLR 04/M04 A2976 RMK AO2 PK WND 23028/1032 SLP084 T00391044
KOTM 160953Z AUTO 23011KT 10SM CLR 04/M04 A2977 RMK AO2 SLP084 T00441044
KOTM 160853Z AUTO 22012G23KT 10SM CLR 04/M04 A2978 RMK AO2 SLP089 T00441044 56009
KOTM 160753Z AUTO 22012KT 10SM CLR 04/M04 A2979 RMK AO2 SLP092 T00391044
KOTM 160653Z AUTO 21009KT 10SM CLR 03/M05 A2979 RMK AO2 SLP092 T00281050
KOTM 160553Z AUTO 21011KT 10SM CLR 03/M06 A2981 RMK AO2 SLP100 T00281056 10033 20011 400721061 56015
KOTM 160453Z AUTO 20013KT 10SM CLR 03/M06 A2983 RMK AO2 SLP106 T00281061
KOTM 160353Z AUTO 20012KT 10SM CLR 02/M06 A2983 RMK AO2 SLP109 T00221061
KOTM 160253Z AUTO 21013KT 10SM BKN100 03/M06 A2985 RMK AO2 SLP116 T00331061 56013
KOTM 160153Z AUTO 20009KT 10SM BKN100 03/M06 A2987 RMK AO2 SLP123 T00281061
KOTM 160053Z AUTO 20010KT 10SM CLR 02/M06 A2987 RMK AO2 SLP124 T00221061
KOTM 152353Z AUTO 21008KT 10SM CLR 02/M07 A2989 RMK AO2 SLP132 T00221067 10072 20017 55008
KOTM 152253Z AUTO 22010KT 10SM CLR 04/M07 A2989 RMK AO2 SLP129 T00441067
KOTM 152153Z AUTO 10SM CLR 06/M07 A2990 RMK AO2 SLP132 T00611067
KOTM 152053Z AUTO 24019G23KT 10SM CLR 07/M06 A2992 RMK AO2 SLP137 T00671061 56019
KOTM 151953Z AUTO 25012G20KT 10SM CLR 06/M06 A2993 RMK AO2 SLP142 T00561056
KOTM 151853Z AUTO 26013G22KT 10SM FEW060 05/M06 A2994 RMK AO2 SLP146 T00501061
KOTM 151753Z AUTO 26013KT 10SM OVC060 04/M05 A2997 RMK AO2 SLP158 I6000 T00391050 10039 21061 58018
KOTM 151653Z AUTO 24012KT 10SM OVC060 02/M05 A3000 RMK AO2 SLP168 T00171050
KOTM 151553Z AUTO 22008KT 10SM OVC060 M01/M05 A3002 RMK AO2 SLP175 T10061050
KOTM 151453Z AUTO 24007KT 10SM OVC050 M02/M05 A3003 RMK AO2 SLP178 I3000 T10171050 50000
KOTM 151353Z AUTO 25007KT 10SM OVC055 M03/M05 A3004 RMK AO2 SLP181 T10281050
KOTM 151253Z AUTO 25005KT 10SM FEW060 M05/M07 A3004 RMK AO2 SLP182 I1000 T10501067
KOTM 151153Z AUTO 24006KT 10SM CLR M04/M06 A3003 RMK AO2 SLP179 I6001 T10441061 11006 21044 58008
KOTM 151053Z AUTO 29009KT 10SM BKN046 M03/M05 A3005 RMK AO2 SLP184 T10281050
KOTM 151016Z AUTO 30007KT 10SM SCT013 SCT044 M03/M05 A3005 RMK AO2 T10281050
KOTM 151009Z AUTO 31010KT 10SM BKN013 BKN044 M02/M04 A3005 RMK AO2 T10221044
KOTM 150953Z AUTO 30010KT 10SM SCT010 BKN015 OVC044 M02/M04 A3005 RMK AO2 SLP186 I1001 T10171039
KOTM 150927Z AUTO 31009KT 6SM BR FEW007 BKN013 OVC024 M02/M03 A3005 RMK AO2 I1001 T10171033
KOTM 150853Z AUTO 33011KT 10SM FEW015 OVC024 M01/M04 A3005 RMK AO2 SLP186 T10111044 53000